Custer City, OK

5:59 PM CST on March 01, 2015 (GMT -0600)
Custer City | Change Station
CLOSE
Current Station
Personal Weather Station
Location: Custer City, OK
Elevation: 1775 ft
Nearby Weather Stations

Elev 1775 ft 35.67 °N, 98.88 °W | Updated 1 second ago

Overcast
Overcast
34.9 °F
Feels Like 28 °F
N
8.1
Wind Variable Wind from NE
Gusts 9.0 mph

Today
High -- | Low -- °F
--% Chance of Precip.
Yesterday
High -- | Low -- °F
Precip. -- in
7:05 AM 6:30 PM
Waxing Gibbous, 88% visible
Pressure 30.35 in
Visibility 10.0 miles
Clouds Mostly Cloudy 3000 ft
Windchill 28 °F
Dew Point 28 °F
Humidity 75%
Rainfall 0.04 in
Snow Depth Not available.
UV 0 out of 12
Pollen 6.20 out of 12
Air Quality Not available.
Flu Activity Not available.
METAR KCLK 012355Z AUTO 03006KT 10SM BKN030 01/M04 A3035 RMK AO2

More Conditions Fewer Conditions

Pressure 30.35 in
Visibility 10.0 miles
Clouds Mostly Cloudy 3000 ft
Windchill 28 °F
Dew Point 28 °F
Humidity 75%
Rainfall 0.04 in
Snow Depth Not available.
UV 0 out of 12
Pollen 6.20 out of 12
Air Quality Not available.
Flu Activity Not available.
METAR KCLK 012355Z AUTO 03006KT 10SM BKN030 01/M04 A3035 RMK AO2

More Conditions Fewer Conditions

10-Day Weather Forecast

Almanac

Astronomy

Mar. 01, 2015 Rise Set
Actual Time
Civil Twilight
Nautical Twilight
Astronomical Twilight
Moon
Length of Visible Light
Length of Day
Tomorrow will be .
, % of the Moon is Illuminated

Today's Extremes

State Highs State Lows

Community

WunderPhotos

Upload Photos

1,801,614 photos uploaded!

WunderBlogs® & News

Nearby

Air Quality

  Air Quality AQ Index Pollutant
Not available.

Snow Depth

Station Depth Elevation

Earthquake Activity

City Distance Mag. Time & Date
Minimum magnitude displayed is 2.5.

Coastal Water Temperatures

Place Temperature

Nearby Weather Stations